createdAt,value
2023-03-25T00:03:09.323Z,66640.28
2023-03-25T00:08:15.198Z,66594.06
2023-03-25T00:13:19.270Z,66627.38
2023-03-25T00:18:24.489Z,66643.06
2023-03-25T00:23:31.540Z,66562.88
2023-03-25T00:28:36.973Z,66604.34
2023-03-25T00:33:42.791Z,66588.06
2023-03-25T00:38:49.704Z,66555.34
2023-03-25T00:43:56.094Z,66483.88
2023-03-25T00:49:01.191Z,66503.75
2023-03-25T00:54:07.650Z,66485.50
2023-03-25T00:59:11.766Z,66527.38
2023-03-25T01:04:16.838Z,66527.94
2023-03-25T01:09:22.829Z,66511.44
2023-03-25T01:14:27.828Z,66465.72
2023-03-25T01:19:31.912Z,66532.78
2023-03-25T01:24:37.584Z,66555.41
2023-03-25T01:29:41.805Z,66578.38
2023-03-25T01:34:47.035Z,66555.88
2023-03-25T01:39:52.934Z,66512.34
2023-03-25T01:45:17.777Z,66495.09
2023-03-25T01:50:22.657Z,66592.34
2023-03-25T01:55:29.165Z,66555.34
2023-03-25T02:00:33.460Z,66549.97
2023-03-25T02:05:43.540Z,66498.41
2023-03-25T02:10:49.633Z,66529.56
2023-03-25T02:16:12.447Z,66623.09
2023-03-25T02:21:51.989Z,66532.22
2023-03-25T02:27:27.475Z,66469.38
2023-03-25T02:32:51.689Z,66440.91
2023-03-25T02:38:26.822Z,66511.28
2023-03-25T02:43:38.713Z,66517.19
2023-03-25T02:48:52.686Z,66507.06
2023-03-25T02:54:03.844Z,66514.97
2023-03-25T02:59:09.869Z,66593.13
2023-03-25T03:04:14.032Z,66589.75
2023-03-25T03:09:30.775Z,66585.38
2023-03-25T03:14:55.441Z,66616.03
2023-03-25T03:20:08.763Z,66572.56
2023-03-25T03:25:27.769Z,66619.78
2023-03-25T03:30:39.650Z,66692.03
2023-03-25T03:35:50.654Z,66687.78
2023-03-25T03:41:01.822Z,66642.47
2023-03-25T03:46:08.954Z,66604.75
2023-03-25T03:51:18.744Z,66548.28
2023-03-25T03:56:27.831Z,66633.38
2023-03-25T04:01:36.146Z,66507.59
2023-03-25T04:06:42.983Z,66533.84
2023-03-25T04:11:55.077Z,66401.69
2023-03-25T04:16:59.825Z,66424.28
2023-03-25T04:22:05.731Z,66490.88
2023-03-25T04:27:13.774Z,66477.53
2023-03-25T04:32:18.270Z,66370.50
2023-03-25T04:37:24.009Z,66322.09
2023-03-25T04:42:32.825Z,66311.63
2023-03-25T04:47:38.287Z,66388.81
2023-03-25T04:52:42.608Z,66365.66
2023-03-25T04:57:49.743Z,66334.16
2023-03-25T05:02:56.273Z,66304.03
2023-03-25T05:08:01.574Z,66291.72
2023-03-25T05:13:09.118Z,66293.84
2023-03-25T05:18:15.300Z,66241.88
2023-03-25T05:23:19.647Z,66292.78
2023-03-25T05:28:25.324Z,66263.28
2023-03-25T05:33:29.479Z,66272.56
2023-03-25T05:38:34.044Z,66297.16
2023-03-25T05:43:40.138Z,66257.47
2023-03-25T05:48:44.083Z,66266.06
2023-03-25T05:53:50.036Z,66231.63
2023-03-25T05:58:56.545Z,66215.63
2023-03-25T06:04:01.990Z,66184.97
2023-03-25T06:09:07.273Z,66190.88
2023-03-25T06:14:12.775Z,66218.22
2023-03-25T06:19:18.574Z,66203.94
2023-03-25T06:24:22.742Z,66232.16
2023-03-25T06:29:28.426Z,66245.03
2023-03-25T06:34:33.986Z,66251.41
2023-03-25T06:39:38.579Z,66267.47
2023-03-25T06:44:52.323Z,66251.03
2023-03-25T06:50:12.856Z,66264.34
2023-03-25T06:55:17.214Z,66272.47
2023-03-25T07:00:24.728Z,66255.50
2023-03-25T07:05:28.885Z,66279.91
2023-03-25T07:10:33.126Z,66313.69
2023-03-25T07:15:39.103Z,66267.66
2023-03-25T07:20:45.969Z,66257.91
2023-03-25T07:25:51.277Z,66275.59
2023-03-25T07:30:56.987Z,66264.88
2023-03-25T07:36:01.124Z,66286.41
2023-03-25T07:41:07.620Z,66315.84
2023-03-25T07:46:13.524Z,66265.41
2023-03-25T07:51:17.386Z,66271.88
2023-03-25T07:56:21.605Z,66307.88
2023-03-25T08:01:27.330Z,66281.06
2023-03-25T08:06:32.141Z,66302.97
2023-03-25T08:11:36.232Z,66283.66
2023-03-25T08:16:41.777Z,66315.31
2023-03-25T08:21:46.154Z,66256.94
2023-03-25T08:26:50.294Z,66230.03
2023-03-25T08:31:56.633Z,66175.25
2023-03-25T08:37:00.661Z,66162.03
2023-03-25T08:42:04.911Z,66146.69
2023-03-25T08:47:19.339Z,66153.28
2023-03-25T08:52:23.629Z,66122.81
2023-03-25T08:57:27.870Z,66140.97
2023-03-25T09:02:33.620Z,66125.31
2023-03-25T09:07:38.227Z,66166.66
2023-03-25T09:12:42.774Z,66143.81
2023-03-25T09:17:48.599Z,66141.22
2023-03-25T09:22:52.689Z,66208.47
2023-03-25T09:27:57.287Z,66157.75
2023-03-25T09:33:03.147Z,66165.78
2023-03-25T09:38:07.654Z,66181.78
2023-03-25T09:43:33.843Z,66210.63
2023-03-25T09:48:41.636Z,66178.56
2023-03-25T09:53:50.860Z,66197.47
2023-03-25T09:58:58.028Z,66196.16
2023-03-25T10:04:29.062Z,66170.06
2023-03-25T10:09:48.436Z,66194.72
2023-03-25T10:15:02.999Z,66235.38
2023-03-25T10:20:17.799Z,66213.94
2023-03-25T10:25:26.426Z,66227.78
2023-03-25T10:30:36.160Z,66254.25
2023-03-25T10:35:46.209Z,66238.06
2023-03-25T10:40:53.521Z,66252.47
2023-03-25T10:46:01.655Z,66275.69
2023-03-25T10:51:12.863Z,66293.84
2023-03-25T10:56:20.126Z,66330.41
2023-03-25T11:01:37.292Z,66397.41
2023-03-25T11:06:46.954Z,66421.13
2023-03-25T11:11:51.244Z,66470.28
2023-03-25T11:16:58.315Z,66533.84
2023-03-25T11:22:12.330Z,66483.88
2023-03-25T11:27:21.052Z,66459.25
2023-03-25T11:32:33.447Z,66517.81
2023-03-25T11:37:47.278Z,66524.78
2023-03-25T11:42:55.099Z,66531.69
2023-03-25T11:48:01.555Z,66484.50
2023-03-25T11:53:07.904Z,66457.72
2023-03-25T11:58:17.399Z,66441.00
2023-03-25T12:03:24.713Z,66463.47
2023-03-25T12:08:43.215Z,66455.44
2023-03-25T12:14:10.608Z,66492.00
2023-03-25T12:19:25.083Z,66573.78
2023-03-25T12:24:47.107Z,66587.13
2023-03-25T12:29:58.513Z,66612.34
2023-03-25T12:35:19.729Z,66714.53
2023-03-25T12:40:54.385Z,66821.75
2023-03-25T12:46:17.161Z,66921.94
2023-03-25T12:51:31.465Z,66898.75
2023-03-25T12:56:47.937Z,67041.09
2023-03-25T13:02:03.021Z,67200.72
2023-03-25T13:07:11.394Z,67359.56
2023-03-25T13:12:32.506Z,67269.94
2023-03-25T13:17:43.309Z,67387.19
2023-03-25T13:22:52.282Z,67383.94
2023-03-25T13:28:04.441Z,67458.56
2023-03-25T13:33:16.050Z,67214.75
2023-03-25T13:38:25.980Z,67331.00
2023-03-25T13:43:37.642Z,67283.31
2023-03-25T13:48:48.668Z,67341.31
2023-03-25T13:53:59.453Z,67338.47
2023-03-25T13:59:28.012Z,67448.41
2023-03-25T14:04:53.760Z,67424.56
2023-03-25T14:10:29.737Z,67400.09
2023-03-25T14:15:37.288Z,67360.16
2023-03-25T14:20:42.008Z,67260.75
2023-03-25T14:25:50.178Z,67190.41
2023-03-25T14:31:30.796Z,67193.78
2023-03-25T14:37:31.461Z,67208.28
2023-03-25T14:42:44.581Z,67043.78
2023-03-25T14:47:54.445Z,67009.72
2023-03-25T14:53:01.384Z,66962.38
2023-03-25T14:58:17.352Z,66992.00
2023-03-25T15:03:24.091Z,66997.34
2023-03-25T15:08:35.578Z,66925.78
2023-03-25T15:13:41.908Z,66912.38
2023-03-25T15:19:06.566Z,66838.97
2023-03-25T15:24:13.394Z,66599.97
2023-03-25T15:29:47.988Z,66220.97
2023-03-25T15:35:32.940Z,66065.44
2023-03-25T15:41:02.608Z,66130.88
2023-03-25T15:46:53.654Z,66181.94
2023-03-25T15:52:19.768Z,66266.06
2023-03-25T15:57:30.444Z,66313.25
2023-03-25T16:02:40.761Z,66374.41
2023-03-25T16:07:47.195Z,66379.41
2023-03-25T16:12:51.682Z,66488.78
2023-03-25T16:17:56.483Z,66535.09
2023-03-25T16:23:04.138Z,66416.91
2023-03-25T16:28:14.633Z,66452.81
2023-03-25T16:33:21.817Z,66361.69
2023-03-25T16:38:28.101Z,66449.59
2023-03-25T16:43:32.900Z,66465.16
2023-03-25T16:48:39.776Z,66474.22
2023-03-25T16:53:48.230Z,66370.22
2023-03-25T16:59:00.278Z,66335.31
2023-03-25T17:04:11.764Z,66349.28
2023-03-25T17:09:20.971Z,66361.53
2023-03-25T17:14:30.960Z,66415.38
2023-03-25T17:19:35.535Z,66459.34
2023-03-25T17:24:43.440Z,66473.66
2023-03-25T17:29:51.926Z,66428.72
2023-03-25T17:35:05.219Z,66385.59
2023-03-25T17:40:21.069Z,66357.78
2023-03-25T17:45:26.760Z,66394.81
2023-03-25T17:50:33.249Z,66384.22
2023-03-25T17:55:38.896Z,66179.63
2023-03-25T18:00:43.303Z,66234.91
2023-03-25T18:05:51.063Z,66282.75
2023-03-25T18:10:57.562Z,66319.06
2023-03-25T18:16:02.127Z,66360.00
2023-03-25T18:21:08.163Z,66257.75
2023-03-25T18:26:17.013Z,66228.03
2023-03-25T18:31:23.604Z,66182.91
2023-03-25T18:36:27.736Z,66126.66
2023-03-25T18:41:33.302Z,66106.75
2023-03-25T18:46:37.601Z,66117.63
2023-03-25T18:51:41.865Z,66158.72
2023-03-25T18:56:47.524Z,66125.59
2023-03-25T19:01:51.830Z,66165.06
2023-03-25T19:06:57.239Z,66121.31
2023-03-25T19:12:02.779Z,66095.06
2023-03-25T19:17:07.407Z,66071.50
2023-03-25T19:22:16.352Z,66118.53
2023-03-25T19:27:21.882Z,66072.91
2023-03-25T19:32:26.709Z,66087.13
2023-03-25T19:37:35.365Z,66045.88
2023-03-25T19:42:41.622Z,66073.56
2023-03-25T19:47:46.339Z,66091.31
2023-03-25T19:52:53.246Z,66074.19
2023-03-25T19:57:58.988Z,66124.34
2023-03-25T20:03:03.672Z,66113.81
2023-03-25T20:08:09.457Z,66111.03
2023-03-25T20:13:15.205Z,66105.88
2023-03-25T20:18:20.052Z,66130.78
2023-03-25T20:23:24.242Z,66134.19
2023-03-25T20:28:31.539Z,66225.28
2023-03-25T20:33:35.864Z,66091.75
2023-03-25T20:38:47.299Z,66070.00
2023-03-25T20:44:00.445Z,66030.72
2023-03-25T20:49:08.988Z,66037.31
2023-03-25T20:54:15.122Z,66065.00
2023-03-25T20:59:21.560Z,66093.38
2023-03-25T21:04:26.611Z,66065.16
2023-03-25T21:09:31.687Z,66053.84
2023-03-25T21:14:38.226Z,66067.75
2023-03-25T21:19:42.780Z,66147.03
2023-03-25T21:24:46.938Z,66150.22
2023-03-25T21:29:52.565Z,66157.75
2023-03-25T21:34:56.796Z,66154.63
2023-03-25T21:40:00.864Z,66201.59
2023-03-25T21:45:08.494Z,66163.09
2023-03-25T21:50:14.256Z,66272.66
2023-03-25T21:55:19.672Z,66120.69
2023-03-25T22:00:25.615Z,66077.03
2023-03-25T22:05:32.465Z,66110.84
2023-03-25T22:10:36.854Z,66198.09
2023-03-25T22:15:42.581Z,66211.41
2023-03-25T22:20:47.092Z,66226.34
2023-03-25T22:25:52.546Z,66188.38
2023-03-25T22:30:58.499Z,66196.94
2023-03-25T22:36:11.949Z,66038.72
2023-03-25T22:41:17.279Z,66136.75
2023-03-25T22:46:23.595Z,66113.38
2023-03-25T22:51:28.800Z,66145.50
2023-03-25T22:56:34.664Z,66210.72
2023-03-25T23:01:40.098Z,66135.16
2023-03-25T23:06:51.164Z,66158.81
2023-03-25T23:12:01.320Z,66099.88
2023-03-25T23:17:06.926Z,66162.56
2023-03-25T23:22:11.310Z,66187.22
2023-03-25T23:27:15.719Z,66074.34
2023-03-25T23:32:21.475Z,66149.63
2023-03-25T23:37:27.404Z,66219.91
2023-03-25T23:42:35.586Z,66158.81
2023-03-25T23:47:41.673Z,66199.00
2023-03-25T23:52:46.077Z,66127.19
2023-03-25T23:57:50.311Z,66110.59
